Time;durP1;ratioP1;P1;durP2;ratioP2;P2;SDS_P1;SDS_P2;PMS_P1;PMS_P2;Temp;Humidity;BMP_temperature;BMP_pressure;BME280_temperature;BME280_humidity;BME280_pressure;Samples;Min_cycle;Max_cycle;Signal;HPM_P1;HPM_P2
2023/01/12 00:02:29;;;;;;;;;104.00;83.67;;;;;1.04;100.00;100000.78;6278702;20;3692001;-66
2023/01/12 00:04:59;;;;;;;;;105.00;82.67;;;;;1.20;100.00;99997.84;6282505;20;3695074;-65
2023/01/12 00:07:28;;;;;;;;;101.00;79.67;;;;;1.34;100.00;99998.47;6279615;20;3695102;-66
2023/01/12 00:09:58;;;;;;;;;93.67;73.00;;;;;1.49;100.00;100000.81;6276980;20;3651373;-65
2023/01/12 00:12:27;;;;;;;;;101.67;82.67;;;;;1.56;100.00;100001.59;6314677;20;3691959;-65
2023/01/12 00:14:57;;;;;;;;;101.33;83.33;;;;;1.41;100.00;99999.22;6277414;20;3694177;-66
2023/01/12 00:17:27;;;;;;;;;103.00;82.67;;;;;1.41;100.00;100002.75;6279695;20;3692986;-66
2023/01/12 00:19:56;;;;;;;;;104.67;85.00;;;;;1.39;100.00;100020.41;6277594;20;3687749;-65
2023/01/12 00:22:26;;;;;;;;;103.00;86.67;;;;;1.35;100.00;100023.16;6282664;20;3696196;-66
2023/01/12 00:24:56;;;;;;;;;101.33;83.33;;;;;1.26;100.00;100029.47;6279223;20;3699228;-66
2023/01/12 00:27:25;;;;;;;;;99.33;78.00;;;;;1.10;100.00;100024.44;6274626;20;3688829;-66
2023/01/12 00:29:55;;;;;;;;;93.00;71.00;;;;;1.03;100.00;100036.06;6277605;20;3665880;-66
2023/01/12 00:32:24;;;;;;;;;104.00;85.67;;;;;1.22;100.00;100027.81;6279180;20;3694054;-66
2023/01/12 00:34:54;;;;;;;;;103.33;85.33;;;;;1.08;100.00;100031.56;6280122;20;3687798;-66
2023/01/12 00:37:25;;;;;;;;;105.33;86.00;;;;;1.01;100.00;100035.19;6276378;20;3696244;-66
2023/01/12 00:39:55;;;;;;;;;98.00;80.67;;;;;0.84;100.00;100038.13;6282699;20;3652355;-66
2023/01/12 00:45:23;;;;;;;;;108.67;85.67;;;;;0.61;100.00;100042.91;6280602;20;3697256;-66
2023/01/12 00:47:53;;;;;;;;;108.00;89.33;;;;;0.61;100.00;100051.72;6279597;20;3708678;-66
2023/01/12 00:50:23;;;;;;;;;107.00;85.67;;;;;0.61;100.00;100057.00;6277052;20;3702380;-66
2023/01/12 00:52:52;;;;;;;;;101.00;80.67;;;;;0.45;100.00;100044.91;6279131;20;3685712;-65
2023/01/12 00:55:22;;;;;;;;;93.33;68.67;;;;;0.44;100.00;100048.44;6278741;20;3646255;-65
2023/01/12 00:57:52;;;;;;;;;96.67;72.00;;;;;0.35;100.00;100057.38;6310354;20;3668008;-66
2023/01/12 01:00:22;;;;;;;;;97.67;75.67;;;;;0.28;100.00;100054.84;6310614;20;3657597;-66
2023/01/12 01:02:51;;;;;;;;;94.67;71.00;;;;;0.19;100.00;100054.06;6279322;20;3660711;-66
2023/01/12 01:05:21;;;;;;;;;96.00;74.33;;;;;0.10;100.00;100048.91;6314657;20;3658836;-66
2023/01/12 01:07:51;;;;;;;;;91.00;65.67;;;;;0.16;100.00;100050.59;6289970;20;2896279;-66
2023/01/12 01:10:20;;;;;;;;;101.33;77.33;;;;;0.09;100.00;100054.22;6308165;20;3683614;-65
2023/01/12 01:12:50;;;;;;;;;105.33;91.00;;;;;0.18;100.00;100054.94;6277182;20;3671165;-66
2023/01/12 01:15:20;;;;;;;;;123.67;99.33;;;;;0.10;100.00;100056.81;6279376;20;3701411;-65
2023/01/12 01:17:50;;;;;;;;;112.33;87.33;;;;;0.28;100.00;100057.47;6278582;20;3692139;-66
2023/01/12 01:20:20;;;;;;;;;122.33;99.00;;;;;0.16;100.00;100047.97;6272488;20;3717042;-65
2023/01/12 01:22:50;;;;;;;;;106.33;84.00;;;;;0.04;100.00;100054.25;6275109;20;3689849;-65
2023/01/12 01:25:20;;;;;;;;;124.33;99.67;;;;;0.06;100.00;100052.47;6278145;20;3700389;-65
2023/01/12 01:27:49;;;;;;;;;124.33;98.33;;;;;0.41;100.00;100053.75;6277764;20;3701292;-65
2023/01/12 01:30:19;;;;;;;;;112.00;90.67;;;;;0.38;100.00;100045.88;6280556;20;3687833;-65
2023/01/12 01:32:49;;;;;;;;;102.67;76.33;;;;;0.12;100.00;100044.47;6279958;20;3697168;-65
2023/01/12 01:35:18;;;;;;;;;113.00;89.00;;;;;-0.04;100.00;100045.56;6282551;20;3689946;-66
2023/01/12 01:37:48;;;;;;;;;107.33;86.33;;;;;0.04;100.00;100048.13;6278762;20;3689846;-66
2023/01/12 01:40:18;;;;;;;;;104.33;86.33;;;;;0.29;100.00;100049.53;6283927;20;3682529;-66
2023/01/12 01:42:48;;;;;;;;;111.67;90.33;;;;;0.37;100.00;100046.75;6282909;20;3701345;-66
2023/01/12 01:45:17;;;;;;;;;106.00;85.67;;;;;0.30;100.00;100029.28;6285537;20;3695060;-65
2023/01/12 01:47:58;;;;;;;;;103.33;82.67;;;;;0.27;100.00;100031.97;6281289;20;3678405;-65
2023/01/12 01:50:42;;;;;;;;;104.33;82.33;;;;;-0.01;100.00;100037.59;6282042;20;3705504;-65
2023/01/12 01:53:20;;;;;;;;;104.33;85.67;;;;;0.27;100.00;100034.63;6283543;20;3679498;-66
2023/01/12 01:56:00;;;;;;;;;102.33;77.33;;;;;0.10;100.00;100033.06;6282155;20;3695046;-66
2023/01/12 01:59:18;;;;;;;;;106.00;89.00;;;;;0.04;100.00;100027.88;6282194;20;3690899;-66
2023/01/12 02:01:47;;;;;;;;;105.67;87.00;;;;;0.18;100.00;100030.31;6282337;20;3684758;-65
2023/01/12 02:04:17;;;;;;;;;106.67;90.33;;;;;0.15;100.00;100020.66;6285264;20;3682535;-65
2023/01/12 02:06:48;;;;;;;;;123.33;104.00;;;;;-0.12;100.00;100021.03;6281773;20;3701290;-65
2023/01/12 02:09:24;;;;;;;;;118.00;92.33;;;;;-0.06;100.00;100008.63;6279769;20;3693996;-65
2023/01/12 02:18:44;;;;;;;;;123.33;99.67;;;;;0.46;100.00;100004.38;6280492;20;3701460;-65
2023/01/12 02:21:50;;;;;;;;;128.67;107.00;;;;;0.71;100.00;100015.47;6276976;20;3715953;-64
2023/01/12 02:24:38;;;;;;;;;125.33;101.00;;;;;0.57;100.00;100020.06;6279325;20;3705653;-65
2023/01/12 02:28:01;;;;;;;;;101.33;80.33;;;;;0.78;100.00;100013.56;6284207;20;3688885;-65
2023/01/12 02:30:58;;;;;;;;;107.00;84.00;;;;;0.98;100.00;100008.81;6281083;20;3692973;-64
2023/01/12 02:33:47;;;;;;;;;103.33;81.67;;;;;0.78;100.00;100010.94;6281172;20;3697115;-63
2023/01/12 02:36:36;;;;;;;;;105.00;77.33;;;;;0.80;100.00;100001.22;6281001;20;3692951;-65
2023/01/12 02:39:36;;;;;;;;;104.33;87.33;;;;;1.09;100.00;100003.34;6284235;20;3675363;-65
2023/01/12 02:42:46;;;;;;;;;104.33;84.33;;;;;0.82;100.00;100002.06;6280740;20;3702431;-66
2023/01/12 02:45:54;;;;;;;;;120.00;96.00;;;;;1.02;100.00;100005.22;6282481;20;3689860;-65
2023/01/12 02:48:34;;;;;;;;;106.33;88.00;;;;;1.04;100.00;100003.41;6281582;20;3692030;-64
2023/01/12 02:51:14;;;;;;;;;101.00;83.00;;;;;1.01;100.00;100008.75;6279653;20;3673205;-65
2023/01/12 02:54:09;;;;;;;;;100.67;80.00;;;;;1.19;100.00;100010.22;6279723;20;3688835;-65
2023/01/12 02:56:54;;;;;;;;;97.00;76.00;;;;;1.16;100.00;100012.91;6277690;20;3668149;-65
2023/01/12 02:59:32;;;;;;;;;99.67;77.33;;;;;1.30;100.00;100020.59;6276674;20;3691947;-65
2023/01/12 03:02:07;;;;;;;;;105.75;83.75;;;;;1.41;100.00;100018.63;6281065;20;3705530;-64
2023/01/12 03:04:39;;;;;;;;;95.33;73.33;;;;;1.42;100.00;100014.19;6315909;20;3664978;-65
2023/01/12 03:07:26;;;;;;;;;99.67;72.00;;;;;1.35;100.00;100013.44;6278197;20;3680445;-65
2023/01/12 03:10:35;;;;;;;;;102.33;77.00;;;;;1.34;100.00;100016.09;6313120;20;3692954;-65
2023/01/12 03:13:12;;;;;;;;;105.00;83.33;;;;;1.35;100.00;100013.44;6279745;20;3694445;-65
2023/01/12 03:15:50;;;;;;;;;97.00;75.67;;;;;1.34;100.00;100002.88;6279928;20;3645102;-65
2023/01/12 03:18:33;;;;;;;;;98.67;69.00;;;;;1.44;100.00;100004.47;6311503;20;3672140;-64
2023/01/12 03:21:16;;;;;;;;;100.00;80.33;;;;;1.42;100.00;100011.53;6277508;20;3677418;-65
2023/01/12 03:23:54;;;;;;;;;94.00;75.67;;;;;1.43;100.00;100015.94;6278412;20;3651316;-65
2023/01/12 03:26:26;;;;;;;;;92.00;69.33;;;;;1.29;100.00;100019.72;6307408;20;3662898;-64
2023/01/12 03:29:48;;;;;;;;;99.00;75.67;;;;;1.41;100.00;100015.09;6309948;20;3663783;-65
2023/01/12 03:32:20;;;;;;;;;81.33;59.67;;;;;1.54;100.00;100021.91;6314878;20;2884650;-65
2023/01/12 03:34:49;;;;;;;;;99.33;78.33;;;;;1.75;100.00;100023.25;6312093;20;3674260;-65
2023/01/12 03:37:41;;;;;;;;;92.00;71.33;;;;;1.56;100.00;100021.88;6277370;20;3653431;-65
2023/01/12 03:40:18;;;;;;;;;91.00;71.33;;;;;1.92;100.00;100023.78;6313446;20;3649238;-65
2023/01/12 03:43:02;;;;;;;;;100.00;79.33;;;;;1.69;100.00;100016.31;6313428;20;3686707;-65
2023/01/12 03:46:02;;;;;;;;;99.33;77.00;;;;;1.63;100.00;100016.41;6283602;20;3686893;-65
2023/01/12 03:49:05;;;;;;;;;97.00;76.00;;;;;1.89;100.00;100017.66;6281101;20;3663854;-65
2023/01/12 03:51:41;;;;;;;;;94.67;73.00;;;;;1.85;100.00;100018.66;6277542;20;3649246;-65
2023/01/12 03:54:13;;;;;;;;;92.67;72.00;;;;;1.94;100.00;100011.38;6309493;20;3658612;-64
2023/01/12 03:56:45;;;;;;;;;95.00;69.33;;;;;2.04;100.00;100016.47;6308639;20;3659761;-65
2023/01/12 03:59:15;;;;;;;;;94.67;74.67;;;;;2.07;100.00;100014.63;6311866;20;3679446;-65
2023/01/12 04:01:47;;;;;;;;;94.00;75.00;;;;;2.15;100.00;100017.13;6276306;20;3665909;-65
2023/01/12 04:04:18;;;;;;;;;93.33;69.67;;;;;2.05;100.00;100010.28;6277267;20;3673258;-65
2023/01/12 04:06:48;;;;;;;;;93.33;70.33;;;;;2.04;100.00;100017.34;6279587;20;3652421;-65
2023/01/12 04:09:18;;;;;;;;;90.67;70.33;;;;;1.81;100.00;100012.53;6309726;20;3658595;-65
2023/01/12 04:14:42;;;;;;;;;100.33;81.00;;;;;1.79;100.00;100017.00;6310458;20;3687833;-65
2023/01/12 04:17:16;;;;;;;;;100.33;81.00;;;;;2.01;100.00;100027.16;6281857;20;3685725;-65
2023/01/12 04:19:47;;;;;;;;;129.25;109.25;;;;;2.09;100.00;100028.72;6280217;20;3715865;-65
2023/01/12 04:25:18;;;;;;;;;151.25;129.50;;;;;2.42;100.00;100005.91;6280590;20;4491966;-65
2023/01/12 04:27:56;;;;;;;;;132.50;121.50;;;;;2.41;100.00;100017.41;6276112;20;4500350;-65
2023/01/12 04:30:27;;;;;;;;;116.67;106.33;;;;;2.46;100.00;100021.72;6276724;20;3688818;-65
2023/01/12 04:33:00;;;;;;;;;107.33;95.33;;;;;2.51;100.00;100020.72;6281337;20;3661802;-65
2023/01/12 04:35:30;;;;;;;;;139.25;121.50;;;;;2.39;100.00;100015.69;6277219;20;4491993;-65
2023/01/12 04:38:06;;;;;;;;;130.00;112.50;;;;;2.53;100.00;100015.41;6276503;20;4483556;-65
2023/01/12 04:40:37;;;;;;;;;121.75;104.25;;;;;2.45;100.00;100012.03;6308061;20;3708698;-65
2023/01/12 04:43:10;;;;;;;;;98.00;89.33;;;;;2.68;100.00;100017.66;6271891;20;3660698;-66
2023/01/12 04:45:42;;;;;;;;;97.67;83.67;;;;;2.62;100.00;100017.81;6277728;20;3670119;-65
2023/01/12 04:48:15;;;;;;;;;96.33;84.00;;;;;2.76;100.00;100021.00;6277923;20;3659743;-65
2023/01/12 04:50:44;;;;;;;;;95.33;77.67;;;;;2.74;100.00;100016.63;6276913;20;3667041;-65
2023/01/12 04:53:14;;;;;;;;;86.67;64.67;;;;;2.86;100.00;100026.94;6276187;20;3637952;-65
2023/01/12 04:55:44;;;;;;;;;93.67;66.67;;;;;2.84;100.00;100019.03;6306039;20;3659759;-65
2023/01/12 04:58:13;;;;;;;;;90.67;69.33;;;;;2.78;100.00;100013.88;6308598;20;3676358;-66
2023/01/12 05:00:43;;;;;;;;;90.33;70.00;;;;;2.90;100.00;100014.47;6273450;20;3664960;-66
2023/01/12 05:03:15;;;;;;;;;91.33;68.33;;;;;2.94;100.00;100018.81;6275954;20;3668070;-65
2023/01/12 05:05:44;;;;;;;;;83.67;64.33;;;;;2.96;100.00;100017.84;6281534;20;3639878;-65
2023/01/12 05:11:02;;;;;;;;;89.33;70.67;;;;;2.89;100.00;100015.41;6278092;20;3649260;-66
2023/01/12 05:13:32;;;;;;;;;85.00;64.33;;;;;2.88;100.00;100032.22;6313082;20;3659838;-66
2023/01/12 05:16:16;;;;;;;;;92.00;72.33;;;;;2.81;100.00;100037.66;6281856;20;3677352;-66
2023/01/12 05:18:46;;;;;;;;;95.00;76.67;;;;;2.79;100.00;100038.59;6282011;20;3678504;-66
2023/01/12 05:21:17;;;;;;;;;88.33;64.33;;;;;2.62;100.00;100036.38;6281845;20;3656528;-65
2023/01/12 05:23:48;;;;;;;;;89.33;68.00;;;;;2.84;100.00;100029.66;6311096;20;3658607;-65
2023/01/12 05:26:17;;;;;;;;;87.67;64.33;;;;;2.90;100.00;100033.94;6312926;20;3643047;-65
2023/01/12 05:28:49;;;;;;;;;86.33;64.33;;;;;2.88;100.00;100034.88;6310866;20;3632636;-65
2023/01/12 05:31:19;;;;;;;;;89.67;65.00;;;;;2.90;100.00;100038.34;6314515;20;3645064;-66
2023/01/12 05:33:49;;;;;;;;;84.33;65.33;;;;;2.89;100.00;100041.91;6317669;20;3635386;-65
2023/01/12 05:36:19;;;;;;;;;83.33;64.00;;;;;2.91;100.00;100040.09;6316770;20;3627346;-65
2023/01/12 05:38:49;;;;;;;;;89.67;64.67;;;;;3.02;100.00;100043.34;6313817;20;3644012;-65
2023/01/12 05:41:18;;;;;;;;;85.00;65.00;;;;;2.90;100.00;100048.94;6308599;20;3652319;-66
2023/01/12 05:43:51;;;;;;;;;79.00;63.67;;;;;2.91;100.00;100050.72;6310937;20;2879579;-66
2023/01/12 05:46:32;;;;;;;;;89.67;70.33;;;;;2.90;100.00;100046.28;6314601;20;3651313;-65
2023/01/12 05:49:01;;;;;;;;;89.67;67.00;;;;;3.11;100.00;100052.84;6314033;20;3660736;-65
2023/01/12 05:51:31;;;;;;;;;89.67;68.67;;;;;3.00;100.00;100051.38;6282956;20;3652321;-65
2023/01/12 05:54:02;;;;;;;;;91.67;68.33;;;;;2.95;100.00;100057.66;6316131;20;3685669;-65
2023/01/12 05:56:32;;;;;;;;;91.33;66.00;;;;;3.04;100.00;100062.75;6271030;20;3648384;-65
2023/01/12 05:59:03;;;;;;;;;81.00;61.00;;;;;3.22;100.00;100066.75;6312699;20;3646112;-65
2023/01/12 06:01:33;;;;;;;;;91.33;71.33;;;;;2.96;100.00;100068.25;6313467;20;3661109;-65
2023/01/12 06:04:02;;;;;;;;;92.33;74.00;;;;;2.92;100.00;100071.00;6281435;20;3656691;-66
2023/01/12 06:06:32;;;;;;;;;87.00;66.67;;;;;2.92;100.00;100077.16;6310744;20;3644192;-65
2023/01/12 06:09:02;;;;;;;;;84.00;64.33;;;;;3.06;100.00;100074.22;6313821;20;2869044;-65
2023/01/12 06:14:20;;;;;;;;;83.67;63.00;;;;;3.27;100.00;100081.63;6312649;20;3632544;-65
2023/01/12 06:16:50;;;;;;;;;72.67;53.33;;;;;3.33;100.00;100059.38;6313685;20;3634902;-65
2023/01/12 06:19:19;;;;;;;;;83.67;64.00;;;;;3.35;100.00;100073.47;6316833;20;3626297;-65
2023/01/12 06:21:50;;;;;;;;;83.00;60.67;;;;;3.23;100.00;100074.63;6316761;20;3649247;-65
2023/01/12 06:24:20;;;;;;;;;77.33;58.33;;;;;3.28;100.00;100078.06;6312737;20;3666913;-65
2023/01/12 06:26:50;;;;;;;;;83.00;59.33;;;;;3.25;100.00;100077.28;6312776;20;3663893;-65
2023/01/12 06:29:20;;;;;;;;;82.33;61.00;;;;;3.31;100.00;100079.75;6282098;20;3648184;-65
2023/01/12 06:31:49;;;;;;;;;75.00;59.67;;;;;3.30;100.00;100083.34;6311721;20;2872237;-65
2023/01/12 06:34:19;;;;;;;;;76.67;60.33;;;;;3.30;100.00;100070.94;6313671;20;3631566;-65
2023/01/12 06:36:48;;;;;;;;;81.67;60.00;;;;;3.39;100.00;100080.44;6313963;20;3655685;-65
2023/01/12 06:39:18;;;;;;;;;78.00;60.00;;;;;3.44;100.00;100082.97;6311477;20;3636772;-65
2023/01/12 06:44:36;;;;;;;;;82.00;60.00;;;;;3.34;100.00;100081.47;6317362;20;3657678;-66
2023/01/12 06:47:04;;;;;;;;;77.50;62.00;;;;;3.28;100.00;100083.34;6281446;20;2856566;-65
2023/01/12 06:49:34;;;;;;;;;75.67;60.33;;;;;3.46;100.00;100086.47;6282695;20;3626561;-65
2023/01/12 06:52:05;;;;;;;;;82.67;61.67;;;;;3.39;100.00;100072.47;6315422;20;3664353;-65
2023/01/12 06:54:35;;;;;;;;;90.33;69.67;;;;;3.56;100.00;100081.78;6281274;20;3664909;-65
2023/01/12 06:57:04;;;;;;;;;87.67;70.00;;;;;3.36;100.00;100083.16;6310437;20;3652442;-65
2023/01/12 06:59:34;;;;;;;;;90.33;70.00;;;;;3.53;100.00;100090.72;6313799;20;3665909;-65
2023/01/12 07:02:14;;;;;;;;;88.00;65.00;;;;;3.43;100.00;100090.06;6280722;20;3644124;-65
2023/01/12 07:04:43;;;;;;;;;91.00;67.67;;;;;3.43;100.00;100100.69;6309719;20;3663831;-64
2023/01/12 07:07:13;;;;;;;;;89.00;68.67;;;;;3.54;100.00;100104.84;6276870;20;3649428;-66
2023/01/12 07:09:43;;;;;;;;;81.33;63.33;;;;;3.35;100.00;100105.31;6311295;20;3632556;-65
2023/01/12 07:12:12;;;;;;;;;82.33;64.33;;;;;3.40;100.00;100113.16;6313317;20;3635124;-65
2023/01/12 07:14:42;;;;;;;;;83.67;63.00;;;;;3.27;100.00;100117.91;6311494;20;3655584;-65
2023/01/12 07:17:12;;;;;;;;;92.00;72.67;;;;;3.34;100.00;100113.31;6314056;20;3671516;-64
2023/01/12 07:19:42;;;;;;;;;92.00;72.33;;;;;3.40;100.00;100115.81;6279949;20;3656515;-65
2023/01/12 07:22:11;;;;;;;;;100.67;78.00;;;;;3.40;100.00;100114.03;6278922;20;3700369;-64
2023/01/12 07:24:41;;;;;;;;;94.33;71.00;;;;;3.46;100.00;100115.66;6282246;20;3685787;-65
2023/01/12 07:27:11;;;;;;;;;87.67;68.00;;;;;3.39;100.00;100106.09;6280538;20;3648178;-65
2023/01/12 07:29:40;;;;;;;;;92.67;73.00;;;;;3.56;100.00;100108.34;6312305;20;3684708;-64
2023/01/12 07:32:10;;;;;;;;;94.00;78.67;;;;;3.58;100.00;100112.69;6280673;20;3677334;-65
2023/01/12 07:34:39;;;;;;;;;92.00;79.00;;;;;3.69;100.00;100105.31;6278888;20;3670120;-65
2023/01/12 07:37:09;;;;;;;;;89.67;72.00;;;;;3.50;100.00;100106.69;6276689;20;3657645;-65
2023/01/12 07:39:40;;;;;;;;;74.33;56.00;;;;;3.35;100.00;100105.31;6276305;20;2889983;-65
2023/01/12 07:42:22;;;;;;;;;93.00;72.00;;;;;3.56;100.00;100106.56;6310210;20;3664839;-65
2023/01/12 07:44:52;;;;;;;;;87.33;69.00;;;;;3.78;100.00;100098.00;6280885;20;3641953;-65
2023/01/12 07:47:21;;;;;;;;;88.33;68.00;;;;;3.55;100.00;100094.16;6313836;20;3658699;-65
2023/01/12 07:49:51;;;;;;;;;81.33;63.00;;;;;3.67;100.00;100099.16;6310063;20;3649398;-65
2023/01/12 07:52:21;;;;;;;;;82.67;64.33;;;;;3.70;100.00;100100.88;6312566;20;3639225;-65
2023/01/12 07:54:50;;;;;;;;;83.00;63.67;;;;;3.60;100.00;100094.91;6312793;20;2877452;-65
2023/01/12 07:57:20;;;;;;;;;86.67;68.67;;;;;3.62;100.00;100097.53;6310464;20;3653477;-65
2023/01/12 07:59:49;;;;;;;;;87.33;64.33;;;;;3.80;100.00;100104.16;6310988;20;3647127;-65
2023/01/12 08:02:19;;;;;;;;;89.00;71.00;;;;;3.91;100.00;100104.72;6314651;20;3655511;-64
2023/01/12 08:04:48;;;;;;;;;88.00;67.00;;;;;3.95;100.00;100103.75;6312432;20;2783663;-65
2023/01/12 08:07:17;;;;;;;;;95.67;74.33;;;;;4.10;100.00;100105.94;6280014;20;3679548;-65
2023/01/12 08:09:47;;;;;;;;;90.67;66.00;;;;;3.94;100.00;100105.50;6276776;20;3662406;-65
2023/01/12 08:12:17;;;;;;;;;86.33;63.00;;;;;4.07;100.00;100103.38;6273525;20;3633635;-64
2023/01/12 08:14:46;;;;;;;;;86.33;68.33;;;;;3.92;100.00;100095.81;6306611;20;3648205;-65
2023/01/12 08:17:20;;;;;;;;;86.00;65.33;;;;;4.17;100.00;100114.63;6281754;20;3651322;-65
2023/01/12 08:20:00;;;;;;;;;88.67;70.67;;;;;4.43;100.00;100111.22;6310836;20;3658695;-65
2023/01/12 08:22:40;;;;;;;;;82.00;63.67;;;;;4.34;100.00;100108.81;6312289;20;3633594;-65
2023/01/12 08:25:19;;;;;;;;;89.67;69.00;;;;;4.48;100.00;100119.94;6311082;20;3666300;-66
2023/01/12 08:27:54;;;;;;;;;76.00;57.67;;;;;4.10;100.00;100126.34;6278393;20;2897279;-65
2023/01/12 08:30:25;;;;;;;;;88.33;64.33;;;;;4.49;100.00;100124.31;6310453;20;3652342;-65
2023/01/12 08:32:58;;;;;;;;;86.33;64.00;;;;;4.47;100.00;100138.56;6310925;20;3651287;-65
2023/01/12 08:35:32;;;;;;;;;82.00;64.33;;;;;4.49;100.00;100134.94;6312261;20;3632593;-65
2023/01/12 08:38:02;;;;;;;;;89.00;65.33;;;;;4.55;100.00;100141.88;6309473;20;3664949;-65
2023/01/12 08:44:00;;;;;;;;;85.33;67.33;;;;;4.58;100.00;100126.72;6314119;20;3640901;-64
2023/01/12 08:46:09;;;;;;;;;86.33;70.67;;;;;4.67;100.00;100133.53;6312183;20;3660689;-65
2023/01/12 08:48:39;;;;;;;;;86.00;66.33;;;;;4.98;100.00;100143.25;6278600;20;3664861;-65
2023/01/12 08:51:08;;;;;;;;;85.50;65.25;;;;;5.00;100.00;100144.03;6312092;20;3647171;-64
2023/01/12 08:53:38;;;;;;;;;79.67;59.00;;;;;4.85;100.00;100134.78;6310368;20;3650355;-65
2023/01/12 08:56:08;;;;;;;;;82.67;63.33;;;;;5.00;100.00;100139.63;6312987;20;3651334;-65
2023/01/12 08:58:38;;;;;;;;;69.00;58.00;;;;;4.90;100.00;100139.91;6312940;20;2871216;-65
2023/01/12 09:01:14;;;;;;;;;75.00;61.00;;;;;5.14;100.00;100132.97;6310162;20;2848234;-65
2023/01/12 09:03:44;;;;;;;;;87.00;65.33;;;;;4.94;100.00;100137.13;6278793;20;3656584;-65
2023/01/12 09:06:23;;;;;;;;;82.33;60.00;;;;;4.96;100.00;100129.09;6276720;20;3653373;-65
2023/01/12 09:09:07;;;;;;;;;78.33;59.00;;;;;5.07;100.00;100127.84;6303317;20;3646095;-66
2023/01/12 09:11:40;;;;;;;;;86.33;68.00;;;;;5.23;100.00;100132.66;6305634;20;3656536;-66
2023/01/12 09:14:15;;;;;;;;;80.67;61.00;;;;;5.14;100.00;100130.31;6309607;20;3619005;-66
2023/01/12 09:16:45;;;;;;;;;86.00;66.67;;;;;5.38;100.00;100126.84;6312476;20;3656506;-67
2023/01/12 09:19:14;;;;;;;;;78.00;61.00;;;;;5.05;100.00;100123.47;6274542;20;2879603;-66
2023/01/12 09:21:44;;;;;;;;;84.00;64.00;;;;;5.40;100.00;100125.00;6307678;20;3637751;-66
2023/01/12 09:24:14;;;;;;;;;82.00;62.67;;;;;5.36;100.00;100128.69;6309942;20;3638855;-65
2023/01/12 09:26:46;;;;;;;;;86.67;67.33;;;;;5.60;100.00;100134.97;6309900;20;3659655;-66
2023/01/12 09:29:16;;;;;;;;;93.00;71.67;;;;;5.98;100.00;100134.59;6275549;20;3685696;-65
2023/01/12 09:31:45;;;;;;;;;80.67;60.33;;;;;5.48;100.00;100117.63;6277453;20;3651776;-65
2023/01/12 09:34:15;;;;;;;;;80.33;59.33;;;;;5.69;100.00;100125.81;6307541;20;3653524;-65
2023/01/12 09:36:45;;;;;;;;;88.00;65.00;;;;;5.57;100.00;100118.25;6306877;20;3647158;-64
2023/01/12 09:39:17;;;;;;;;;84.67;64.67;;;;;5.94;100.00;100116.06;6308380;20;3637770;-64
2023/01/12 09:47:55;;;;;;;;;70.33;52.33;;;;;6.03;100.00;100132.63;6274006;20;2882667;-65
2023/01/12 09:50:32;;;;;;;;;85.00;63.33;;;;;5.94;100.00;100126.72;6308722;20;3649406;-65
2023/01/12 09:53:19;;;;;;;;;82.67;61.33;;;;;5.99;100.00;100128.34;6306588;20;3636777;-65
2023/01/12 09:56:08;;;;;;;;;80.33;60.67;;;;;6.09;100.00;100127.09;6306017;20;3650291;-64
2023/01/12 09:58:46;;;;;;;;;79.67;60.67;;;;;6.33;100.00;100128.88;6310100;20;3637769;-65
2023/01/12 10:01:19;;;;;;;;;84.67;65.67;;;;;6.14;100.00;100130.47;6312538;20;3654558;-64
2023/01/12 10:04:01;;;;;;;;;87.00;66.00;;;;;6.54;100.00;100129.00;6281110;20;2781574;-65
2023/01/12 10:06:32;;;;;;;;;70.33;55.00;;;;;6.44;100.00;100131.13;6280971;20;3629519;-65
2023/01/12 10:09:08;;;;;;;;;74.67;58.33;;;;;6.50;100.00;100135.38;6313669;20;3616290;-65
2023/01/12 10:12:04;;;;;;;;;85.00;62.00;;;;;6.38;100.00;100134.03;6311230;20;3628512;-64
2023/01/12 10:15:28;;;;;;;;;82.67;64.00;;;;;6.45;100.00;100138.22;6312267;20;3633686;-66
2023/01/12 10:18:20;;;;;;;;;86.00;63.67;;;;;6.54;100.00;100132.53;6312034;20;3654659;-64
2023/01/12 10:20:50;;;;;;;;;76.33;58.00;;;;;6.55;100.00;100117.38;6277674;20;3641042;-65
2023/01/12 10:23:23;;;;;;;;;84.33;62.00;;;;;6.33;100.00;100123.53;6313836;20;3634807;-65
2023/01/12 10:26:22;;;;;;;;;82.00;61.33;;;;;6.53;100.00;100124.56;6317038;20;3641934;-65
2023/01/12 10:28:55;;;;;;;;;83.00;62.67;;;;;6.79;100.00;100136.91;6280915;20;3628413;-65
2023/01/12 10:31:25;;;;;;;;;80.00;62.33;;;;;6.57;100.00;100131.53;6315360;20;3622104;-65
2023/01/12 10:34:11;;;;;;;;;80.67;61.67;;;;;6.58;100.00;100123.50;6315120;20;3629408;-65
2023/01/12 10:36:53;;;;;;;;;80.33;62.00;;;;;6.84;100.00;100120.72;6285939;20;3624389;-65
2023/01/12 10:39:51;;;;;;;;;82.00;63.33;;;;;6.71;100.00;100120.34;6279391;20;3627374;-65
2023/01/12 10:45:23;;;;;;;;;84.33;63.00;;;;;6.80;100.00;100118.19;6314562;20;3630606;-62
2023/01/12 10:47:54;;;;;;;;;69.33;53.67;;;;;6.98;100.00;100118.41;6311553;20;3619150;-63
2023/01/12 10:50:31;;;;;;;;;77.33;58.67;;;;;7.34;100.00;100118.69;6308869;20;3639821;-63
2023/01/12 10:53:14;;;;;;;;;77.67;56.00;;;;;7.75;100.00;100118.75;6310618;20;3645070;-64
2023/01/12 10:55:46;;;;;;;;;75.00;56.67;;;;;7.39;100.00;100107.81;6314323;20;3642975;-64
2023/01/12 10:58:26;;;;;;;;;64.67;51.67;;;;;7.22;100.00;100113.88;6313712;20;3624225;-64
2023/01/12 11:00:57;;;;;;;;;73.00;53.00;;;;;7.31;100.00;100118.81;6310039;20;3631508;-64
2023/01/12 11:03:39;;;;;;;;;73.00;54.00;;;;;7.38;100.00;100119.44;6314900;20;3647115;-64
2023/01/12 11:06:34;;;;;;;;;62.00;48.33;;;;;7.97;100.00;100107.97;6280766;20;2896276;-67
2023/01/12 11:09:27;;;;;;;;;61.67;50.33;;;;;8.04;100.00;100098.75;6311555;20;3627355;-66
2023/01/12 11:12:02;;;;;;;;;68.67;51.67;;;;;8.27;99.26;100104.91;6313050;20;3629453;-65
2023/01/12 11:14:36;;;;;;;;;60.67;46.67;;;;;7.99;99.76;100090.06;6276636;20;3632561;-65
2023/01/12 11:17:47;;;;;;;;;66.00;50.00;;;;;8.05;100.00;100100.50;6310950;20;3633676;-65
2023/01/12 11:20:34;;;;;;;;;57.00;45.33;;;;;7.78;100.00;100096.38;6308799;20;2859092;-66
2023/01/12 11:23:52;;;;;;;;;64.00;52.00;;;;;8.18;99.87;100095.47;6315326;20;2883708;-65
2023/01/12 11:26:49;;;;;;;;;60.67;48.67;;;;;9.13;96.24;100085.66;6313961;20;2874331;-65
2023/01/12 11:29:55;;;;;;;;;64.00;49.00;;;;;9.02;96.48;100091.53;6312319;20;3623348;-64
2023/01/12 11:32:56;;;;;;;;;62.00;47.33;;;;;9.04;96.09;100086.13;6312376;20;3627327;-64
2023/01/12 11:36:18;;;;;;;;;59.67;46.67;;;;;8.97;96.64;100090.88;6311505;20;2870174;-64
2023/01/12 11:39:00;;;;;;;;;52.00;42.50;;;;;9.01;96.23;100084.47;6311131;20;2841969;-64
2023/01/12 11:45:38;;;;;;;;;57.00;45.67;;;;;9.30;94.82;100076.78;6312146;20;3601364;-63
2023/01/12 11:49:01;;;;;;;;;58.67;48.00;;;;;9.93;93.83;100081.63;6311730;20;3615968;-62
2023/01/12 11:51:31;;;;;;;;;52.67;43.33;;;;;9.71;93.41;100076.47;6311348;20;3604437;-64
2023/01/12 11:54:00;;;;;;;;;52.67;42.67;;;;;9.74;94.03;100070.09;6310162;20;3597593;-64
2023/01/12 11:56:52;;;;;;;;;53.00;41.67;;;;;9.54;95.34;100072.00;6307555;20;3612800;-65
2023/01/12 11:59:55;;;;;;;;;59.00;44.00;;;;;9.51;95.30;100065.94;6312367;20;3615882;-64
2023/01/12 12:03:38;;;;;;;;;53.33;45.00;;;;;9.28;95.96;100061.75;6310357;20;2869075;-64
2023/01/12 12:06:57;;;;;;;;;51.00;40.50;;;;;9.32;95.66;100053.47;6314927;20;2851546;-63
2023/01/12 12:10:12;;;;;;;;;50.00;40.00;;;;;9.66;95.12;100046.38;6279785;20;2846103;-63
2023/01/12 12:13:02;;;;;;;;;49.00;40.00;;;;;9.51;94.53;100047.19;6278895;20;2838251;-64
2023/01/12 12:16:14;;;;;;;;;39.33;34.33;;;;;9.43;93.95;100060.97;6286622;20;3595102;-64